Erwin, TN

1:21 AM EDT on September 02, 2014 (GMT -0400)
Erwin | Change Station
CLOSE
Current Station
Personal Weather Station
Location: Erwin, TN
Elevation: 1923 ft
Nearby Weather Stations

Elev 1923 ft 36.15 °N, 82.40 °W | Updated 7 seconds ago

Partly Cloudy
Partly Cloudy
66.9 °F
Feels Like 66.9 °F
N
0.0
Wind Variable Wind from SE
Gusts 0.0 mph

Today
High -- | Low -- °F
--% Chance of Precip.
Yesterday
High -- | Low -- °F
Precip. -- in
7:02 AM 7:55 PM
Waxing Crescent, 48% visible
Pressure 30.14 in
Visibility 10.0 miles
Clouds Clear
Dew Point 65 °F
Humidity 93%
Rainfall 0.00 in
Snow Depth Not available.
UV 0 out of 12
Pollen 9.50 out of 12
Air Quality Not available.
Flu Activity Not available.
METAR K0A9 020515Z AUTO 05003KT 10SM CLR 20/18 A3014 RMK

More Conditions Fewer Conditions

Pressure 30.14 in
Visibility 10.0 miles
Clouds Clear
Dew Point 65 °F
Humidity 93%
Rainfall 0.00 in
Snow Depth Not available.
UV 0 out of 12
Pollen 9.50 out of 12
Air Quality Not available.
Flu Activity Not available.
METAR K0A9 020515Z AUTO 05003KT 10SM CLR 20/18 A3014 RMK

More Conditions Fewer Conditions

10-Day Weather Forecast

Almanac

Astronomy

Sep. 02, 2014 Rise Set
Actual Time 7:02 AM EDT 7:55 PM EDT
Civil Twilight 6:35 AM EDT 8:22 PM EDT
Nautical Twilight 6:04 AM EDT 8:53 PM EDT
Astronomical Twilight 5:32 AM EDT 9:24 PM EDT
Moon 2:32 PM EDT 12:09 AM EDT
Length of Visible Light 13h 46m
Length of Day
12h 53m
Tomorrow will be 2m 12s shorter.
Waxing Crescent, 48% of the Moon is Illuminated
Today
Waxing Crescent
Sep 2
First Quarter
Sep 8
Full
Sep 15
Last Quarter
Sep 24
New

Today's Extremes

State Highs State Lows

Community

WunderPhotos

Upload Photos

1,749,575 photos uploaded!

WunderBlogs® & News

Nearby

Snow Depth

Station Depth Elevation
No new snow has been reported.

Earthquake Activity

City Distance Mag. Time & Date
No recent earthquake activity has been reported nearby.
Minimum magnitude displayed is 2.5.

Coastal Water Temperatures

Place Temperature
No Stations Reporting

Nearby Weather Stations